Time;durP1;ratioP1;P1;durP2;ratioP2;P2;SDS_P1;SDS_P2;PMS_P1;PMS_P2;Temp;Humidity;BMP_temperature;BMP_pressure;BME280_temperature;BME280_humidity;BME280_pressure;Samples;Min_cycle;Max_cycle;Signal;HPM_P1;HPM_P2
2022/01/24 00:00:38;;;;;;;8.95;5.45;;;;;;;-5.36;100.00;61458.19;6135634;23;20305;-75
2022/01/24 00:03:07;;;;;;;7.20;5.13;;;;;;;-5.51;100.00;61443.44;6134805;23;20480;-76
2022/01/24 00:05:34;;;;;;;10.75;6.10;;;;;;;-5.47;100.00;61447.50;6136173;23;20199;-75
2022/01/24 00:08:02;;;;;;;7.28;5.35;;;;;;;-5.44;100.00;61450.56;6136490;23;20176;-75
2022/01/24 00:10:29;;;;;;;6.03;4.40;;;;;;;-5.43;100.00;61448.59;6133662;23;20200;-75
2022/01/24 00:13:32;;;;;;;6.30;5.30;;;;;;;-5.45;100.00;61451.53;6138559;23;20230;-74
2022/01/24 00:16:02;;;;;;;7.72;5.85;;;;;;;-5.47;100.00;61447.00;6139703;23;20267;-75
2022/01/24 00:26:40;;;;;;;9.60;5.25;;;;;;;-5.44;100.00;61442.63;6137910;23;20389;-75
2022/01/24 00:26:47;;;;;;;10.52;6.95;;;;;;;-5.36;100.00;61455.72;6136695;23;20181;-77
2022/01/24 00:29:16;;;;;;;7.22;5.15;;;;;;;-5.34;100.00;61455.28;6135167;23;20199;-75
2022/01/24 00:31:43;;;;;;;13.82;7.43;;;;;;;-5.35;100.00;61469.16;6134224;23;20536;-75
2022/01/24 00:34:11;;;;;;;9.52;5.88;;;;;;;-5.32;100.00;61464.75;6135494;23;20182;-77
2022/01/24 00:36:39;;;;;;;9.88;6.07;;;;;;;-5.35;100.00;61456.75;6136410;23;20208;-75
2022/01/24 00:39:07;;;;;;;6.82;4.78;;;;;;;-5.35;100.00;61457.25;6135427;23;20171;-75
2022/01/24 00:41:45;;;;;;;9.57;5.60;;;;;;;-5.56;100.00;61438.34;6135689;23;20177;-75
2022/01/24 00:44:42;;;;;;;11.25;5.75;;;;;;;-5.37;100.00;61459.66;6135532;23;20434;-75
2022/01/24 00:47:14;;;;;;;7.05;6.10;;;;;;;-5.39;100.00;61452.66;6134888;23;20194;-75
2022/01/24 00:55:13;;;;;;;9.73;6.90;;;;;;;-5.47;100.00;61449.97;6135603;23;20194;-76
2022/01/24 00:57:40;;;;;;;11.85;6.45;;;;;;;-5.48;100.00;61446.47;6135001;23;20235;-75
2022/01/24 01:00:08;;;;;;;9.57;6.53;;;;;;;-5.36;100.00;61461.19;6135754;23;20199;-74
2022/01/24 01:02:36;;;;;;;8.82;6.82;;;;;;;-5.37;100.00;61459.66;6135312;23;20176;-76
2022/01/24 01:05:15;;;;;;;11.27;7.55;;;;;;;-5.39;100.00;61453.19;6134063;23;20202;-75
2022/01/24 01:07:54;;;;;;;9.02;6.53;;;;;;;-5.34;100.00;61457.75;6136715;23;20168;-75
2022/01/24 01:18:40;;;;;;;8.95;6.55;;;;;;;-5.19;100.00;61475.53;6138807;23;20182;-76
2022/01/24 01:21:13;;;;;;;6.55;5.82;;;;;;;-5.16;100.00;61471.16;6138228;23;20191;-75
2022/01/24 01:23:45;;;;;;;9.82;5.05;;;;;;;-5.09;100.00;61486.22;6138105;23;20486;-74
2022/01/24 01:26:21;;;;;;;12.48;7.00;;;;;;;-5.16;100.00;61474.13;6137611;23;20591;-75
2022/01/24 01:28:53;;;;;;;12.38;6.07;;;;;;;-5.06;100.00;61488.78;6137980;23;20175;-76
2022/01/24 01:31:29;;;;;;;12.35;6.03;;;;;;;-5.11;100.00;61481.72;6137871;23;20477;-75
2022/01/24 01:34:05;;;;;;;8.65;6.20;;;;;;;-5.08;100.00;61489.22;6136652;23;20203;-76
2022/01/24 01:37:11;;;;;;;8.60;5.82;;;;;;;-5.09;100.00;61488.22;6137300;23;20163;-75
2022/01/24 01:54:14;;;;;;;8.80;6.38;;;;;;;-5.62;100.00;61434.19;6136986;23;20226;-75
2022/01/24 01:56:41;;;;;;;11.43;6.18;;;;;;;-5.61;100.00;61435.22;6136792;23;20174;-76
2022/01/24 01:59:08;;;;;;;12.93;7.97;;;;;;;-5.72;100.00;61422.03;6136708;23;20429;-76
2022/01/24 02:01:34;;;;;;;17.65;8.77;;;;;;;-5.73;100.00;61422.97;6136900;23;20170;-75
2022/01/24 02:04:03;;;;;;;13.00;7.90;;;;;;;-5.68;100.00;61423.63;6137545;23;20180;-78
2022/01/24 02:06:30;;;;;;;16.50;8.70;;;;;;;-5.69;100.00;61422.59;6136710;23;20488;-75
2022/01/24 02:09:04;;;;;;;18.75;8.93;;;;;;;-5.75;100.00;61420.94;6136438;23;20178;-75
2022/01/24 02:11:31;;;;;;;17.95;8.98;;;;;;;-5.84;100.00;61402.38;6137340;23;20248;-75
2022/01/24 02:14:01;;;;;;;15.00;8.07;;;;;;;-5.88;100.00;61407.72;6137083;23;20203;-76
2022/01/24 02:16:37;;;;;;;12.50;7.25;;;;;;;-5.79;100.00;61411.91;6137162;23;20163;-75
2022/01/24 02:19:19;;;;;;;12.48;7.90;;;;;;;-5.83;100.00;61403.41;6136375;23;20218;-75
2022/01/24 02:22:05;;;;;;;14.07;7.82;;;;;;;-5.85;100.00;61408.31;6136685;23;20404;-75
2022/01/24 02:24:40;;;;;;;19.33;9.02;;;;;;;-5.82;100.00;61411.84;6136331;23;20192;-74
2022/01/24 02:27:07;;;;;;;12.20;7.32;;;;;;;-5.84;100.00;61416.75;6136265;23;20376;-74
2022/01/24 02:29:48;;;;;;;16.30;8.93;;;;;;;-6.06;100.00;61384.94;6135623;23;20431;-75
2022/01/24 02:32:14;;;;;;;12.88;8.23;;;;;;;-6.21;100.00;61369.66;6136737;23;20163;-75
2022/01/24 02:34:45;;;;;;;16.70;8.02;;;;;;;-6.37;100.00;61358.31;6136753;23;20246;-75
2022/01/24 02:37:17;;;;;;;8.60;7.10;;;;;;;-6.13;100.00;61380.28;6135638;23;20171;-74
2022/01/24 02:39:51;;;;;;;12.27;6.13;;;;;;;-5.99;100.00;61397.53;6135559;23;20196;-75
2022/01/24 02:53:27;;;;;;;9.32;4.50;;;;;;;-5.62;100.00;61434.19;6106152;23;20235;-76
2022/01/24 02:55:54;;;;;;;5.90;5.13;;;;;;;-5.61;100.00;61433.25;6135906;23;20383;-75
2022/01/24 02:58:21;;;;;;;6.07;5.25;;;;;;;-5.51;100.00;61443.44;6136195;23;20429;-76
2022/01/24 03:00:50;;;;;;;6.07;4.80;;;;;;;-5.47;100.00;61444.53;6136783;23;20263;-75
2022/01/24 03:03:18;;;;;;;7.88;4.65;;;;;;;-5.51;100.00;61440.94;6136030;23;20179;-75
2022/01/24 03:05:45;;;;;;;7.55;4.35;;;;;;;-5.26;100.00;61475.84;6137124;23;20229;-74
2022/01/24 03:08:13;;;;;;;5.57;4.45;;;;;;;-5.43;100.00;61451.06;6137881;23;20181;-74
2022/01/24 03:10:45;;;;;;;7.50;5.50;;;;;;;-5.48;100.00;61446.47;6141273;23;20195;-74
2022/01/24 03:13:21;;;;;;;7.63;5.18;;;;;;;-5.49;100.00;61447.44;6136829;23;20239;-74
2022/01/24 03:15:50;;;;;;;4.38;3.95;;;;;;;-5.52;100.00;61442.41;6137074;23;20432;-75
2022/01/24 03:18:17;;;;;;;7.15;5.40;;;;;;;-5.42;100.00;61455.09;6136231;23;20167;-74
2022/01/24 03:20:45;;;;;;;10.80;6.10;;;;;;;-5.40;100.00;61457.09;6135708;23;20254;-75
2022/01/24 03:23:12;;;;;;;7.85;5.53;;;;;;;-5.54;100.00;61437.88;6136099;23;20235;-75
2022/01/24 03:25:39;;;;;;;11.88;6.30;;;;;;;-5.47;100.00;61444.53;6135521;23;20191;-75
2022/01/24 03:28:07;;;;;;;8.65;5.45;;;;;;;-5.43;100.00;61444.13;6136422;23;20230;-74
2022/01/24 03:30:35;;;;;;;7.32;5.65;;;;;;;-5.42;100.00;61450.13;6134875;23;20191;-75
2022/01/24 03:33:02;;;;;;;7.10;4.63;;;;;;;-5.39;100.00;61455.16;6136087;23;20254;-75
2022/01/24 03:35:29;;;;;;;8.43;5.65;;;;;;;-5.37;100.00;61457.19;6136367;23;20195;-75
2022/01/24 03:37:56;;;;;;;8.48;5.63;;;;;;;-5.30;100.00;61464.31;6135408;23;20223;-74
2022/01/24 03:40:23;;;;;;;8.95;5.28;;;;;;;-5.23;100.00;61468.97;6135282;23;20195;-75
2022/01/24 03:42:49;;;;;;;8.20;5.18;;;;;;;-5.20;100.00;61472.56;6135863;23;20176;-75
2022/01/24 03:45:24;;;;;;;17.35;5.43;;;;;;;-5.27;100.00;61464.91;6135983;23;20271;-76
2022/01/24 03:48:04;;;;;;;7.80;4.47;;;;;;;-5.27;100.00;61464.91;6135557;23;20205;-75
2022/01/24 03:50:31;;;;;;;10.27;4.68;;;;;;;-5.18;100.00;61479.03;6135928;23;20183;-75
2022/01/24 03:52:58;;;;;;;6.28;4.90;;;;;;;-5.26;100.00;61466.44;6136440;23;20203;-76
2022/01/24 03:55:24;;;;;;;6.32;4.82;;;;;;;-5.30;100.00;61462.34;6135584;23;20226;-76
2022/01/24 03:57:51;;;;;;;7.68;5.90;;;;;;;-5.47;100.00;61442.53;6135187;23;20378;-74
2022/01/24 04:00:20;;;;;;;7.78;6.20;;;;;;;-5.61;100.00;61435.22;6135422;23;20195;-75
2022/01/24 04:02:47;;;;;;;10.98;6.63;;;;;;;-5.64;100.00;61427.69;6136276;23;20171;-75
2022/01/24 04:05:13;;;;;;;10.50;6.72;;;;;;;-5.42;100.00;61450.13;6136438;23;20195;-76
2022/01/24 04:07:41;;;;;;;11.40;6.43;;;;;;;-5.72;100.00;61422.03;6134978;23;20169;-75
2022/01/24 04:10:09;;;;;;;9.90;5.82;;;;;;;-5.83;100.00;61410.84;6135174;23;20195;-77
2022/01/24 04:12:39;;;;;;;9.50;7.30;;;;;;;-5.59;100.00;61435.28;6136410;23;20248;-75
2022/01/24 04:15:26;;;;;;;10.68;7.15;;;;;;;-5.52;100.00;61442.41;6135431;23;20225;-75
2022/01/24 04:18:12;;;;;;;12.13;7.43;;;;;;;-5.39;100.00;61457.63;6135532;23;20175;-74
2022/01/24 04:23:23;;;;;;;12.65;8.80;;;;;;;-5.22;100.00;61465.03;6136076;23;20538;-75
2022/01/24 04:25:50;;;;;;;14.07;8.48;;;;;;;-5.27;100.00;61467.38;6134997;23;20519;-76
2022/01/24 04:28:17;;;;;;;16.25;9.23;;;;;;;-5.38;100.00;61453.69;6136528;23;20227;-75
2022/01/24 04:30:44;;;;;;;19.75;9.88;;;;;;;-5.41;100.00;61445.66;6135615;23;20204;-76
2022/01/24 04:33:12;;;;;;;13.88;9.10;;;;;;;-5.51;100.00;61436.00;6135523;23;20215;-74
2022/01/24 04:35:42;;;;;;;13.35;9.20;;;;;;;-5.60;100.00;61433.75;6135626;23;20416;-74
2022/01/24 04:38:09;;;;;;;12.55;7.80;;;;;;;-5.54;100.00;61437.88;6135902;23;20176;-75
2022/01/24 04:40:36;;;;;;;16.98;10.07;;;;;;;-5.56;100.00;61437.81;6136321;23;20195;-75
2022/01/24 04:43:25;;;;;;;12.95;7.88;;;;;;;-5.68;100.00;61428.59;6139053;23;20163;-75
2022/01/24 04:46:05;;;;;;;15.77;8.77;;;;;;;-5.89;100.00;61401.75;6139395;23;20194;-76
2022/01/24 04:51:31;;;;;;;17.00;9.13;;;;;;;-5.75;100.00;61420.94;6138959;23;20383;-74
2022/01/24 04:54:37;;;;;;;17.20;9.55;;;;;;;-5.68;100.00;61425.59;6138840;23;20531;-74
2022/01/24 04:57:04;;;;;;;12.77;8.27;;;;;;;-5.58;100.00;61435.78;6138623;23;20175;-75
2022/01/24 04:59:34;;;;;;;15.82;8.82;;;;;;;-5.50;100.00;61439.47;6140218;23;20195;-75
2022/01/24 05:02:01;;;;;;;17.90;9.93;;;;;;;-5.44;100.00;61450.06;6138745;23;20206;-73
2022/01/24 05:04:29;;;;;;;14.23;9.88;;;;;;;-5.32;100.00;61459.81;6138336;23;20191;-73
2022/01/24 05:06:56;;;;;;;14.98;9.57;;;;;;;-5.39;100.00;61457.63;6138749;23;20410;-73
2022/01/24 05:09:23;;;;;;;15.70;9.50;;;;;;;-5.33;100.00;61461.28;6138345;23;20203;-74
2022/01/24 05:11:54;;;;;;;14.23;9.15;;;;;;;-5.37;100.00;61457.19;6139135;23;20163;-73
2022/01/24 05:25:20;;;;;;;12.63;8.15;;;;;;;-5.41;100.00;61456.09;6136715;23;20238;-74
2022/01/24 05:27:47;;;;;;;15.30;7.38;;;;;;;-5.52;100.00;61444.88;6136254;23;20176;-74
2022/01/24 05:30:16;;;;;;;12.60;7.03;;;;;;;-5.36;100.00;61461.19;6136689;23;20195;-74
2022/01/24 05:32:45;;;;;;;11.93;7.35;;;;;;;-5.34;100.00;61460.75;6110768;23;20187;-74
2022/01/24 05:35:13;;;;;;;10.07;7.20;;;;;;;-5.36;100.00;61458.72;6138910;23;20266;-74
2022/01/24 05:37:40;;;;;;;18.83;8.75;;;;;;;-5.32;100.00;61462.81;6137833;23;20352;-74
2022/01/24 05:40:08;;;;;;;12.15;6.68;;;;;;;-5.36;100.00;61460.69;6139836;23;20254;-74
2022/01/24 05:42:35;;;;;;;10.75;7.40;;;;;;;-5.75;100.00;61415.97;6137654;23;20167;-74
2022/01/24 05:45:03;;;;;;;8.00;6.22;;;;;;;-5.52;100.00;61434.97;6137815;23;20198;-74
2022/01/24 05:47:30;;;;;;;7.22;6.30;;;;;;;-5.42;100.00;61450.13;6138448;23;20175;-75
2022/01/24 05:49:57;;;;;;;9.18;5.18;;;;;;;-5.57;100.00;61431.84;6138716;23;20191;-73
2022/01/24 05:52:25;;;;;;;10.60;5.57;;;;;;;-5.87;100.00;61406.78;6137866;23;20182;-73
2022/01/24 05:54:52;;;;;;;10.82;6.75;;;;;;;-5.98;100.00;61393.59;6136621;23;20219;-74
2022/01/24 05:57:30;;;;;;;8.30;6.25;;;;;;;-5.76;100.00;61414.97;6138635;23;20175;-74
2022/01/24 06:00:09;;;;;;;11.68;7.43;;;;;;;-5.94;100.00;61394.69;6153699;23;20246;-76
2022/01/24 06:02:37;;;;;;;13.43;7.43;;;;;;;-6.08;100.00;61385.91;6141448;23;20231;-76
2022/01/24 06:05:05;;;;;;;9.75;6.40;;;;;;;-6.16;100.00;61374.75;6136331;23;20235;-75
2022/01/24 06:07:33;;;;;;;12.38;6.68;;;;;;;-6.39;100.00;61351.84;6139307;23;20176;-76
2022/01/24 06:10:00;;;;;;;15.13;7.53;;;;;;;-6.38;100.00;61355.34;6139506;23;20254;-75
2022/01/24 06:12:27;;;;;;;11.15;6.03;;;;;;;-6.35;100.00;61355.41;6136563;23;20180;-75
2022/01/24 06:14:54;;;;;;;8.98;6.18;;;;;;;-6.41;100.00;61349.81;6137287;23;20207;-75
2022/01/24 06:17:21;;;;;;;8.10;5.40;;;;;;;-6.41;100.00;61354.75;6137882;23;20218;-75
2022/01/24 06:19:50;;;;;;;8.45;5.85;;;;;;;-6.39;100.00;61348.84;6142810;23;20191;-77
2022/01/24 06:22:17;;;;;;;7.75;5.93;;;;;;;-6.31;100.00;61361.94;6139699;23;20476;-76
2022/01/24 06:24:45;;;;;;;13.80;5.28;;;;;;;-6.28;100.00;61363.03;6142182;23;20250;-75
2022/01/24 06:27:12;;;;;;;6.38;5.40;;;;;;;-6.36;100.00;61357.38;6144704;23;20184;-75
2022/01/24 06:29:39;;;;;;;8.63;5.72;;;;;;;-6.25;100.00;61375.50;6144657;23;20196;-76
2022/01/24 06:32:07;;;;;;;11.60;5.18;;;;;;;-6.03;100.00;61388.00;6141291;23;20179;-76
2022/01/24 06:34:34;;;;;;;9.65;5.97;;;;;;;-6.06;100.00;61389.91;6140484;23;20211;-75
2022/01/24 06:37:00;;;;;;;6.90;5.47;;;;;;;-5.83;100.00;61413.31;6141558;23;20179;-76
2022/01/24 06:39:27;;;;;;;13.85;6.65;;;;;;;-5.71;100.00;61415.59;6141213;23;20570;-75
2022/01/24 06:42:08;;;;;;;12.15;7.30;;;;;;;-5.51;100.00;61443.44;6139585;23;20175;-75
2022/01/24 06:44:35;;;;;;;11.93;5.38;;;;;;;-5.28;100.00;61466.38;6140369;23;20407;-74
2022/01/24 06:47:02;;;;;;;8.13;5.97;;;;;;;-5.20;99.90;61469.56;6138806;23;20171;-75
2022/01/24 06:49:29;;;;;;;12.05;6.20;;;;;;;-5.13;98.59;61481.66;6136475;23;20195;-74
2022/01/24 06:51:56;;;;;;;10.07;7.10;;;;;;;-4.99;97.17;61498.41;6137885;23;20395;-74
2022/01/24 06:54:22;;;;;;;11.82;7.40;;;;;;;-4.89;96.44;61501.16;6138837;23;20398;-74
2022/01/24 06:56:49;;;;;;;15.43;9.73;;;;;;;-4.82;95.87;61513.25;6138712;23;20175;-75
2022/01/24 06:59:17;;;;;;;11.68;5.97;;;;;;;-4.90;93.96;61500.66;6138952;23;20210;-75
2022/01/24 07:01:44;;;;;;;7.18;5.40;;;;;;;-5.41;89.55;61451.13;6138128;23;20215;-74
2022/01/24 07:04:11;;;;;;;5.72;4.85;;;;;;;-5.21;93.08;61473.50;6136739;23;20205;-75
2022/01/24 07:06:38;;;;;;;17.92;7.07;;;;;;;-5.04;91.97;61493.31;6136985;23;20172;-75
2022/01/24 07:09:05;;;;;;;15.15;7.75;;;;;;;-4.82;93.64;61510.78;6136929;23;20171;-75
2022/01/24 07:11:32;;;;;;;10.80;6.30;;;;;;;-4.97;92.73;61500.94;6137782;23;20182;-75
2022/01/24 07:13:59;;;;;;;11.88;5.75;;;;;;;-4.85;91.44;61508.22;6137513;23;20191;-75
2022/01/24 07:16:38;;;;;;;7.00;4.13;;;;;;;-4.88;88.40;61512.09;6137641;23;20174;-76
2022/01/24 07:19:06;;;;;;;4.40;3.65;;;;;;;-4.78;87.37;61515.38;6138860;23;20179;-75
2022/01/24 07:21:33;;;;;;;3.97;3.00;;;;;;;-4.72;85.80;61523.47;6137604;23;20218;-75
2022/01/24 07:23:59;;;;;;;5.90;3.70;;;;;;;-4.44;84.30;61549.03;6137965;23;20254;-75
2022/01/24 07:26:26;;;;;;;5.00;3.50;;;;;;;-4.57;83.11;61538.75;6138443;23;20475;-75
2022/01/24 07:28:53;;;;;;;4.78;3.78;;;;;;;-4.33;84.37;61562.75;6136739;23;20176;-75
2022/01/24 07:31:20;;;;;;;4.63;3.80;;;;;;;-4.17;81.61;61581.53;6139203;23;20537;-76
2022/01/24 07:33:51;;;;;;;5.07;3.83;;;;;;;-4.17;80.91;61574.59;6138210;23;20235;-77
2022/01/24 07:36:23;;;;;;;4.30;3.90;;;;;;;-4.10;80.29;61586.19;6138794;23;20211;-76
2022/01/24 07:38:55;;;;;;;4.57;3.83;;;;;;;-4.18;80.77;61578.03;6137385;23;20190;-77
2022/01/24 07:41:26;;;;;;;8.90;4.70;;;;;;;-4.44;81.18;61549.03;6135754;23;20371;-77
2022/01/24 07:43:56;;;;;;;6.75;4.75;;;;;;;-4.59;84.14;61534.22;6139010;23;20492;-77
2022/01/24 07:46:23;;;;;;;5.18;3.85;;;;;;;-4.66;86.04;61526.59;6139629;23;20194;-76
2022/01/24 07:48:52;;;;;;;5.28;4.03;;;;;;;-4.33;87.00;61555.28;6136863;23;20167;-75
2022/01/24 07:51:19;;;;;;;6.40;4.90;;;;;;;-4.05;84.77;61591.81;6135674;23;20178;-74
2022/01/24 07:53:46;;;;;;;12.60;5.53;;;;;;;-3.78;82.94;61621.84;6136451;23;20164;-75
2022/01/24 07:56:14;;;;;;;6.20;4.63;;;;;;;-4.14;81.13;61577.66;6136046;23;20241;-75
2022/01/24 07:58:43;;;;;;;9.50;5.93;;;;;;;-3.91;82.73;61601.13;6136059;23;20226;-76
2022/01/24 08:01:10;;;;;;;7.57;5.20;;;;;;;-3.78;80.62;61616.88;6137039;23;20258;-75
2022/01/24 08:03:37;;;;;;;10.20;6.10;;;;;;;-3.93;79.96;61604.06;6137106;23;20223;-75
2022/01/24 08:06:06;;;;;;;6.43;5.18;;;;;;;-3.72;81.68;61620.03;6141590;23;20191;-74
2022/01/24 08:08:33;;;;;;;6.25;4.28;;;;;;;-4.29;79.13;61557.38;6141851;23;20167;-76
2022/01/24 08:11:00;;;;;;;7.60;4.53;;;;;;;-4.62;81.73;61530.69;6141064;23;20214;-75
2022/01/24 08:13:27;;;;;;;8.60;5.82;;;;;;;-4.61;84.42;61537.16;6141753;23;20167;-75
2022/01/24 08:15:53;;;;;;;7.88;5.45;;;;;;;-4.16;83.98;61587.53;6140841;23;20463;-74
2022/01/24 08:18:21;;;;;;;8.77;5.88;;;;;;;-3.90;80.55;61607.13;6141324;23;20190;-75
2022/01/24 08:20:48;;;;;;;6.72;5.45;;;;;;;-3.64;80.04;61633.16;6139645;23;20242;-76
2022/01/24 08:23:19;;;;;;;10.20;6.32;;;;;;;-3.65;78.09;61625.19;6140478;23;20214;-75
2022/01/24 08:25:54;;;;;;;8.88;4.85;;;;;;;-3.75;78.30;61622.44;6141634;23;20199;-76
2022/01/24 08:28:21;;;;;;;16.15;7.30;;;;;;;-3.67;78.49;61628.13;6140674;23;20175;-75
2022/01/24 08:30:48;;;;;;;8.95;5.53;;;;;;;-3.44;77.73;61656.06;6139495;23;20196;-76
2022/01/24 08:33:16;;;;;;;7.78;4.72;;;;;;;-3.33;75.08;61659.34;6137328;23;20175;-75
2022/01/24 08:35:43;;;;;;;6.63;5.35;;;;;;;-3.82;75.91;61612.31;6136249;23;20207;-75
2022/01/24 08:38:10;;;;;;;6.20;4.63;;;;;;;-3.72;77.67;61628.00;6135889;23;20231;-75
2022/01/24 08:40:40;;;;;;;7.30;5.07;;;;;;;-4.07;78.67;61582.31;6137773;23;20187;-75
2022/01/24 08:43:07;;;;;;;6.45;4.45;;;;;;;-3.79;78.15;61615.88;6135782;23;20204;-75
2022/01/24 08:45:46;;;;;;;7.95;4.47;;;;;;;-3.66;77.93;61634.09;6136786;23;20191;-75
2022/01/24 08:48:14;;;;;;;6.35;5.10;;;;;;;-3.25;74.67;61670.00;6140239;23;20171;-75
2022/01/24 08:50:42;;;;;;;5.03;4.50;;;;;;;-3.04;74.01;61693.94;6136243;23;20538;-74
2022/01/24 08:53:10;;;;;;;6.75;5.25;;;;;;;-2.62;72.70;61734.34;6139503;23;20172;-76
2022/01/24 08:55:40;;;;;;;7.15;4.10;;;;;;;-2.33;68.65;61764.03;6140839;23;20217;-76
2022/01/24 08:58:11;;;;;;;5.95;4.68;;;;;;;-1.89;67.28;61811.50;6138593;23;20179;-75
2022/01/24 09:00:38;;;;;;;4.65;4.00;;;;;;;-1.63;62.06;61837.59;6136976;23;20195;-75
2022/01/24 09:03:05;;;;;;;5.50;4.38;;;;;;;-1.93;61.45;61814.38;6137275;23;20167;-76
2022/01/24 09:05:35;;;;;;;5.75;4.80;;;;;;;-2.08;63.82;61787.06;6136006;23;20251;-74
2022/01/24 09:08:03;;;;;;;10.50;4.57;;;;;;;-2.22;63.29;61775.25;6135629;23;20171;-76
2022/01/24 09:10:30;;;;;;;6.88;3.90;;;;;;;-2.14;64.15;61777.94;6135958;23;20351;-75
2022/01/24 09:12:59;;;;;;;4.88;4.40;;;;;;;-1.65;63.80;61833.03;6135616;23;20187;-75
2022/01/24 09:15:26;;;;;;;8.13;5.20;;;;;;;-1.69;63.25;61826.97;6134775;23;20259;-76
2022/01/24 09:17:53;;;;;;;4.82;4.35;;;;;;;-2.02;61.17;61793.19;6135594;23;20179;-75
2022/01/24 09:20:21;;;;;;;7.03;4.53;;;;;;;-2.77;62.47;61714.06;6134587;23;20594;-75
2022/01/24 09:22:49;;;;;;;5.05;4.53;;;;;;;-3.03;65.35;61695.47;6135687;23;20243;-75
2022/01/24 09:25:17;;;;;;;6.30;4.45;;;;;;;-3.21;66.31;61676.56;6135003;23;20242;-75
2022/01/24 09:27:44;;;;;;;5.18;3.78;;;;;;;-2.79;66.03;61715.00;6133937;23;20183;-76
2022/01/24 09:30:14;;;;;;;7.53;4.45;;;;;;;-3.16;64.08;61682.19;6136194;23;20230;-75
2022/01/24 09:32:41;;;;;;;4.80;3.88;;;;;;;-2.94;64.54;61699.69;6135526;23;20171;-75
2022/01/24 09:35:11;;;;;;;4.65;4.05;;;;;;;-2.61;62.88;61727.91;6136203;23;20206;-75
2022/01/24 09:37:39;;;;;;;6.55;4.20;;;;;;;-2.12;61.09;61784.97;6137456;23;20210;-76
2022/01/24 09:40:07;;;;;;;7.13;4.18;;;;;;;-2.76;60.41;61722.56;6137116;23;20197;-74
2022/01/24 09:42:34;;;;;;;3.80;2.95;;;;;;;-3.08;58.33;61692.34;6135153;23;20171;-75
2022/01/24 09:45:01;;;;;;;5.10;3.80;;;;;;;-3.37;58.49;61655.75;6135918;23;20225;-75
2022/01/24 09:47:40;;;;;;;4.53;3.22;;;;;;;-3.47;62.27;61653.03;6143352;23;20183;-77
2022/01/24 09:50:08;;;;;;;5.80;4.03;;;;;;;-3.37;61.22;61658.25;6137075;23;20203;-75
2022/01/24 09:52:36;;;;;;;6.43;4.25;;;;;;;-4.08;63.41;61588.25;6136569;23;20184;-77
2022/01/24 09:55:04;;;;;;;7.05;4.22;;;;;;;-4.53;65.38;61539.84;6135017;23;20217;-75
2022/01/24 09:57:31;;;;;;;6.10;4.57;;;;;;;-4.25;66.86;61563.44;6133785;23;20282;-76
2022/01/24 09:59:58;;;;;;;5.50;4.80;;;;;;;-3.71;66.04;61624.03;6136436;23;20242;-75
2022/01/24 10:02:26;;;;;;;3.92;3.50;;;;;;;-3.72;63.58;61625.50;6136620;23;20400;-74
2022/01/24 10:05:13;;;;;;;7.25;4.25;;;;;;;-3.82;63.09;61614.78;6136745;23;20187;-75
2022/01/24 10:07:40;;;;;;;5.70;4.35;;;;;;;-3.96;62.72;61596.03;6138568;23;20219;-76
2022/01/24 10:10:08;;;;;;;5.43;3.95;;;;;;;-4.24;62.53;61572.44;6138411;23;20207;-77
2022/01/24 10:16:24;;;;;;;8.05;5.13;;;;;;;-3.89;61.50;61607.63;6139283;23;20210;-76
2022/01/24 10:18:10;;;;;;;6.97;4.60;;;;;;;-3.08;59.34;61687.88;6139498;23;20178;-75
2022/01/24 10:20:40;;;;;;;5.78;4.40;;;;;;;-3.32;58.88;61667.81;6137465;23;20241;-75
2022/01/24 10:23:14;;;;;;;5.38;4.10;;;;;;;-3.07;58.20;61693.88;6138469;23;20203;-75
2022/01/24 10:25:49;;;;;;;5.57;4.22;;;;;;;-2.40;55.73;61762.34;6136086;23;20192;-76
2022/01/24 10:28:24;;;;;;;8.20;4.40;;;;;;;-1.57;53.97;61838.75;6137556;23;20173;-75
2022/01/24 10:31:03;;;;;;;5.43;4.10;;;;;;;-1.21;52.37;61878.06;6136721;23;20191;-74
2022/01/24 10:33:31;;;;;;;6.13;4.75;;;;;;;-1.24;53.00;61879.97;6138569;23;20424;-75
2022/01/24 10:36:00;;;;;;;6.38;4.53;;;;;;;-2.08;53.95;61787.06;6140990;23;20246;-75
2022/01/24 10:38:39;;;;;;;5.65;5.00;;;;;;;-3.05;58.77;61697.88;6137802;23;20176;-75
2022/01/24 10:41:17;;;;;;;11.02;6.60;;;;;;;-3.60;63.98;61632.28;6139054;23;20254;-74
2022/01/24 10:43:45;;;;;;;6.38;4.28;;;;;;;-3.96;64.76;61601.00;6137983;23;20231;-75
2022/01/24 10:46:13;;;;;;;10.48;5.68;;;;;;;-4.35;67.25;61563.19;6136402;23;20268;-74
2022/01/24 10:48:42;;;;;;;7.63;4.57;;;;;;;-4.55;67.00;61540.78;6135872;23;20404;-75
2022/01/24 10:51:14;;;;;;;6.50;3.85;;;;;;;-4.86;69.94;61509.69;6135270;23;20191;-74
2022/01/24 10:53:49;;;;;;;8.80;5.25;;;;;;;-4.94;70.76;61506.50;6141615;23;20175;-76
2022/01/24 10:56:32;;;;;;;11.25;4.88;;;;;;;-4.79;69.61;61516.84;6142279;23;20190;-74
2022/01/24 10:59:06;;;;;;;6.93;4.47;;;;;;;-4.73;70.92;61524.94;6139498;23;20180;-74
2022/01/24 11:01:34;;;;;;;5.20;3.97;;;;;;;-4.43;70.75;61550.03;6141921;23;20167;-74
2022/01/24 11:04:04;;;;;;;7.80;4.18;;;;;;;-4.68;69.01;61530.53;6143552;23;20182;-74
2022/01/24 11:06:35;;;;;;;5.85;4.05;;;;;;;-4.57;68.33;61538.75;6143100;23;20363;-74
2022/01/24 11:09:22;;;;;;;3.97;3.35;;;;;;;-4.44;69.60;61554.00;6145272;23;20180;-74
2022/01/24 11:11:50;;;;;;;6.25;4.10;;;;;;;-4.26;71.54;61564.91;6139781;23;20164;-75
2022/01/24 11:14:20;;;;;;;4.78;4.05;;;;;;;-3.80;69.40;61614.34;6143666;23;20195;-74
2022/01/24 11:16:48;;;;;;;4.82;4.03;;;;;;;-4.16;69.43;61577.59;6148353;23;20262;-75
2022/01/24 11:19:20;;;;;;;8.25;4.57;;;;;;;-4.32;69.83;61564.28;6142766;23;20191;-75
2022/01/24 11:21:51;;;;;;;5.53;4.45;;;;;;;-4.38;72.98;61563.09;6145058;23;20228;-75
2022/01/24 11:24:26;;;;;;;7.57;4.90;;;;;;;-4.75;77.92;61518.44;6149511;23;20203;-75
2022/01/24 11:26:56;;;;;;;5.00;3.70;;;;;;;-4.87;78.76;61506.19;6141868;23;20527;-75
2022/01/24 11:29:24;;;;;;;3.35;3.05;;;;;;;-5.20;80.34;61477.00;6137156;23;20203;-75
2022/01/24 11:31:58;;;;;;;13.90;4.85;;;;;;;-5.13;83.10;61479.69;6136966;23;20183;-75
2022/01/24 11:34:35;;;;;;;4.88;4.45;;;;;;;-4.80;82.11;61508.34;6138226;23;20234;-75
2022/01/24 11:37:04;;;;;;;6.53;4.47;;;;;;;-4.79;82.12;61516.84;6139855;23;20247;-74
2022/01/24 11:39:31;;;;;;;6.07;4.85;;;;;;;-4.68;79.80;61530.03;6138331;23;20192;-75
2022/01/24 11:41:59;;;;;;;5.65;3.55;;;;;;;-4.71;76.51;61520.03;6138350;23;20172;-75
2022/01/24 11:44:27;;;;;;;4.22;3.67;;;;;;;-4.90;73.27;61507.59;6136885;23;20200;-74
2022/01/24 11:46:56;;;;;;;9.10;5.78;;;;;;;-4.68;76.34;61530.53;6140268;23;20179;-75
2022/01/24 11:49:32;;;;;;;8.68;5.72;;;;;;;-4.54;75.80;61544.31;6139614;23;20191;-75
2022/01/24 11:52:06;;;;;;;7.60;5.15;;;;;;;-4.72;78.81;61523.97;6141288;23;20317;-75
2022/01/24 11:54:48;;;;;;;12.25;6.28;;;;;;;-4.73;77.56;61522.94;6138263;23;20196;-75
2022/01/24 11:57:27;;;;;;;6.88;4.45;;;;;;;-5.23;74.60;61469.47;6137060;23;20207;-75
2022/01/24 12:00:18;;;;;;;4.13;3.47;;;;;;;-5.48;75.06;61451.44;6138244;23;20242;-75
2022/01/24 12:02:49;;;;;;;8.73;5.18;;;;;;;-5.59;76.74;61432.78;6136295;23;20172;-75
2022/01/24 12:05:17;;;;;;;3.92;3.28;;;;;;;-5.54;76.54;61440.38;6137628;23;20202;-76
2022/01/24 12:07:51;;;;;;;5.43;3.30;;;;;;;-5.55;73.53;61436.34;6141353;23;20223;-75
2022/01/24 12:10:43;;;;;;;2.58;2.33;;;;;;;-5.79;73.23;61419.84;6141848;23;20202;-75
2022/01/24 12:13:14;;;;;;;2.92;2.72;;;;;;;-5.88;72.51;61407.72;6138195;23;20472;-75
2022/01/24 12:16:06;;;;;;;4.05;3.60;;;;;;;-5.88;75.70;61413.19;6137773;23;20214;-75
2022/01/24 12:19:00;;;;;;;5.35;3.85;;;;;;;-5.87;73.98;61403.78;6142232;23;20230;-76
2022/01/24 12:21:29;;;;;;;1.33;1.30;;;;;;;-5.79;71.65;61419.34;6138623;23;20171;-75
2022/01/24 12:24:04;;;;;;;6.35;4.35;;;;;;;-5.86;73.41;61412.75;6139141;23;20195;-75
2022/01/24 12:26:33;;;;;;;6.80;4.40;;;;;;;-5.87;74.18;61408.72;6146920;23;20258;-75
2022/01/24 12:29:05;;;;;;;5.45;4.32;;;;;;;-5.62;75.59;61431.69;6140159;23;20186;-75
2022/01/24 12:31:39;;;;;;;7.88;5.00;;;;;;;-5.61;75.58;61435.72;6141640;23;20186;-74
2022/01/24 12:34:27;;;;;;;4.32;3.55;;;;;;;-5.56;74.57;61440.31;6140443;23;20198;-77
2022/01/24 12:37:08;;;;;;;5.68;3.80;;;;;;;-5.39;76.36;61458.13;6140926;23;20199;-76
2022/01/24 12:39:53;;;;;;;7.15;2.97;;;;;;;-5.56;75.46;61435.84;6140019;23;20191;-76
2022/01/24 12:48:12;;;;;;;4.10;3.70;;;;;;;-5.70;76.52;61421.06;6140672;23;20178;-76
2022/01/24 12:50:44;;;;;;;4.68;4.05;;;;;;;-5.46;76.67;61443.06;6138869;23;20250;-76
2022/01/24 12:53:13;;;;;;;7.90;4.82;;;;;;;-5.12;74.16;61478.22;6108861;23;20202;-74